createdAt,value
2022-11-16T00:00:35.563Z,41.15
2022-11-16T00:03:03.744Z,41.23
2022-11-16T00:05:30.299Z,41.24
2022-11-16T00:07:57.733Z,41.31
2022-11-16T00:10:24.352Z,41.37
2022-11-16T00:12:50.913Z,41.41
2022-11-16T00:15:17.455Z,41.40
2022-11-16T00:17:43.996Z,41.40
2022-11-16T00:20:10.947Z,41.50
2022-11-16T00:22:37.558Z,41.54
2022-11-16T00:25:04.531Z,41.57
2022-11-16T00:27:31.214Z,41.61
2022-11-16T00:29:57.768Z,41.64
2022-11-16T00:32:24.462Z,41.67
2022-11-16T00:34:51.018Z,41.70
2022-11-16T00:37:17.576Z,41.74
2022-11-16T00:39:44.163Z,41.78
2022-11-16T00:42:10.722Z,41.80
2022-11-16T00:44:37.359Z,41.87
2022-11-16T00:47:04.038Z,41.89
2022-11-16T00:49:30.669Z,41.93
2022-11-16T00:51:57.238Z,41.95
2022-11-16T00:54:23.897Z,41.99
2022-11-16T00:56:50.454Z,42.03
2022-11-16T00:59:17.029Z,42.07
2022-11-16T01:01:43.762Z,42.07
2022-11-16T01:04:10.516Z,42.10
2022-11-16T01:06:37.067Z,42.08
2022-11-16T01:09:03.793Z,42.12
2022-11-16T01:11:48.691Z,42.16
2022-11-16T01:14:15.291Z,42.19
2022-11-16T01:16:41.918Z,42.18
2022-11-16T01:19:08.500Z,42.20
2022-11-16T01:21:35.093Z,42.21
2022-11-16T01:24:01.629Z,42.21
2022-11-16T01:26:28.182Z,42.21
2022-11-16T01:28:54.812Z,42.26
2022-11-16T01:31:21.446Z,42.33
2022-11-16T01:33:47.983Z,42.35
2022-11-16T01:36:16.914Z,42.37
2022-11-16T01:38:44.184Z,42.40
2022-11-16T01:41:14.238Z,42.41
2022-11-16T01:43:56.307Z,42.43
2022-11-16T01:46:23.405Z,42.44
2022-11-16T01:48:51.795Z,42.44
2022-11-16T01:51:18.384Z,42.46
2022-11-16T01:53:44.978Z,42.49
2022-11-16T01:56:11.539Z,42.50
2022-11-16T01:58:38.112Z,42.52
2022-11-16T02:01:04.741Z,42.51
2022-11-16T02:03:31.391Z,42.55
2022-11-16T02:06:16.235Z,42.60
2022-11-16T02:09:26.477Z,42.63
2022-11-16T02:12:06.859Z,42.65
2022-11-16T02:15:16.014Z,42.68
2022-11-16T02:18:07.480Z,42.68
2022-11-16T02:20:52.410Z,42.72
2022-11-16T02:23:29.853Z,42.75
2022-11-16T02:26:27.300Z,42.75
2022-11-16T02:29:15.782Z,42.80
2022-11-16T02:31:46.451Z,42.80
2022-11-16T02:34:14.019Z,42.84
2022-11-16T02:36:40.670Z,42.83
2022-11-16T02:39:09.160Z,42.86
2022-11-16T02:41:36.689Z,42.87
2022-11-16T02:44:06.244Z,42.90
2022-11-16T02:46:36.828Z,42.90
2022-11-16T02:49:03.973Z,42.93
2022-11-16T02:51:30.527Z,42.93
2022-11-16T02:54:18.043Z,43.00
2022-11-16T02:57:02.968Z,43.00
2022-11-16T02:59:36.260Z,43.02
2022-11-16T03:02:12.729Z,43.03
2022-11-16T03:04:45.555Z,43.05
2022-11-16T03:07:13.687Z,43.05
2022-11-16T03:09:40.571Z,43.10
2022-11-16T03:12:08.504Z,43.12
2022-11-16T03:14:55.990Z,43.11
2022-11-16T03:17:27.949Z,43.14
2022-11-16T03:20:08.347Z,43.14
2022-11-16T03:22:51.207Z,43.20
2022-11-16T03:25:19.144Z,43.20
2022-11-16T03:27:53.581Z,43.22
2022-11-16T03:30:23.813Z,43.23
2022-11-16T03:33:20.290Z,43.24
2022-11-16T03:35:52.769Z,43.30
2022-11-16T03:38:19.679Z,43.32
2022-11-16T03:40:46.333Z,43.36
2022-11-16T03:43:12.902Z,43.34
2022-11-16T03:45:39.443Z,43.34
2022-11-16T03:48:07.013Z,43.13
2022-11-16T03:50:33.636Z,42.35
2022-11-16T03:53:00.281Z,40.98
2022-11-16T03:55:26.831Z,39.71
2022-11-16T03:57:53.402Z,38.68
2022-11-16T04:00:22.326Z,36.52
2022-11-16T04:02:48.885Z,33.13
2022-11-16T04:05:33.994Z,29.95
2022-11-16T04:08:19.193Z,27.61
2022-11-16T04:11:04.718Z,25.85
2022-11-16T04:13:51.214Z,25.16
2022-11-16T04:16:36.339Z,25.03
2022-11-16T04:19:21.662Z,24.96
2022-11-16T04:22:09.509Z,24.87
2022-11-16T04:24:38.073Z,24.79
2022-11-16T04:27:24.830Z,24.73
2022-11-16T04:29:51.371Z,24.67
2022-11-16T04:32:36.468Z,24.62
2022-11-16T04:35:21.800Z,24.54
2022-11-16T04:37:52.791Z,24.47
2022-11-16T04:40:20.055Z,24.41
2022-11-16T04:42:53.544Z,24.36
2022-11-16T04:45:38.986Z,24.30
2022-11-16T04:48:07.941Z,24.24
2022-11-16T04:50:34.686Z,24.16
2022-11-16T04:53:01.412Z,24.09
2022-11-16T04:55:27.969Z,24.05
2022-11-16T04:57:54.549Z,24.00
2022-11-16T05:00:21.480Z,23.99
2022-11-16T05:02:48.052Z,23.95
2022-11-16T05:05:14.898Z,23.90
2022-11-16T05:07:41.705Z,23.85
2022-11-16T05:10:08.577Z,23.79
2022-11-16T05:12:35.165Z,23.74
2022-11-16T05:15:01.744Z,23.74
2022-11-16T05:17:28.470Z,23.69
2022-11-16T05:20:13.571Z,23.65
2022-11-16T05:22:40.137Z,23.64
2022-11-16T05:25:07.782Z,23.56
2022-11-16T05:27:34.395Z,23.55
2022-11-16T05:30:00.998Z,23.53
2022-11-16T05:32:27.733Z,23.48
2022-11-16T05:34:54.337Z,23.47
2022-11-16T05:37:26.673Z,23.45
2022-11-16T05:39:54.895Z,23.43
2022-11-16T05:42:21.510Z,23.42
2022-11-16T05:44:48.117Z,23.42
2022-11-16T05:47:14.677Z,24.07
2022-11-16T05:49:41.229Z,24.43
2022-11-16T05:52:07.786Z,23.79
2022-11-16T05:54:34.535Z,23.56
2022-11-16T05:57:01.088Z,24.28
2022-11-16T05:59:29.327Z,24.37
2022-11-16T06:01:55.907Z,24.01
2022-11-16T06:04:24.507Z,23.66
2022-11-16T06:06:51.480Z,23.55
2022-11-16T06:09:18.097Z,23.68
2022-11-16T06:11:44.674Z,24.18
2022-11-16T06:14:11.258Z,24.26
2022-11-16T06:16:37.916Z,24.46
2022-11-16T06:19:04.517Z,24.28
2022-11-16T06:21:31.151Z,24.25
2022-11-16T06:23:57.923Z,24.20
2022-11-16T06:26:24.543Z,24.07
2022-11-16T06:28:53.427Z,24.01
2022-11-16T06:31:19.987Z,23.86
2022-11-16T06:33:46.552Z,23.96
2022-11-16T06:36:13.122Z,23.90
2022-11-16T06:38:39.658Z,24.00
2022-11-16T06:41:06.231Z,24.29
2022-11-16T06:43:32.774Z,24.73
2022-11-16T06:45:59.445Z,25.11
2022-11-16T06:48:26.033Z,25.49
2022-11-16T06:50:55.539Z,26.12
2022-11-16T06:53:27.551Z,26.53
2022-11-16T06:55:55.763Z,27.17
2022-11-16T06:58:22.422Z,27.72
2022-11-16T07:00:49.195Z,28.17
2022-11-16T07:03:15.796Z,28.48
2022-11-16T07:05:42.370Z,28.90
2022-11-16T07:08:09.469Z,29.27
2022-11-16T07:10:36.973Z,29.32
2022-11-16T07:13:03.822Z,29.11
2022-11-16T07:15:30.928Z,28.83
2022-11-16T07:17:57.578Z,28.07
2022-11-16T07:20:24.221Z,26.62
2022-11-16T07:22:50.894Z,25.16
2022-11-16T07:25:17.446Z,24.30
2022-11-16T07:27:44.069Z,24.16
2022-11-16T07:30:11.200Z,24.59
2022-11-16T07:32:39.888Z,24.98
2022-11-16T07:35:06.909Z,24.85
2022-11-16T07:37:33.442Z,24.76
2022-11-16T07:40:00.135Z,24.77
2022-11-16T07:42:26.834Z,24.73
2022-11-16T07:44:53.380Z,24.67
2022-11-16T07:47:19.976Z,24.71
2022-11-16T07:49:48.786Z,24.73
2022-11-16T07:52:15.387Z,24.76
2022-11-16T07:54:41.927Z,24.60
2022-11-16T07:57:08.610Z,24.60
2022-11-16T07:59:35.225Z,24.68
2022-11-16T08:02:01.847Z,24.56
2022-11-16T08:04:28.448Z,24.47
2022-11-16T08:06:55.115Z,24.58
2022-11-16T08:09:21.769Z,24.83
2022-11-16T08:11:48.398Z,24.48
2022-11-16T08:14:15.710Z,24.32
2022-11-16T08:16:42.298Z,24.19
2022-11-16T08:19:08.850Z,24.34
2022-11-16T08:21:35.467Z,24.31
2022-11-16T08:24:02.048Z,24.58
2022-11-16T08:26:28.654Z,24.61
2022-11-16T08:28:56.540Z,24.74
2022-11-16T08:31:25.347Z,24.73
2022-11-16T08:33:52.167Z,24.63
2022-11-16T08:36:18.945Z,24.65
2022-11-16T08:38:46.309Z,24.62
2022-11-16T08:41:13.037Z,24.59
2022-11-16T08:43:40.445Z,24.88
2022-11-16T08:46:10.252Z,24.91
2022-11-16T08:48:37.509Z,24.92
2022-11-16T08:51:21.111Z,24.81
2022-11-16T08:53:49.199Z,24.68
2022-11-16T08:56:17.224Z,24.65
2022-11-16T08:58:44.373Z,24.98
2022-11-16T09:01:13.859Z,24.89
2022-11-16T09:03:41.033Z,24.81
2022-11-16T09:06:07.959Z,24.96
2022-11-16T09:08:35.852Z,25.29
2022-11-16T09:11:06.432Z,25.38
2022-11-16T09:13:33.206Z,25.33
2022-11-16T09:16:00.378Z,25.46
2022-11-16T09:18:27.393Z,25.33
2022-11-16T09:20:54.094Z,25.52
2022-11-16T09:23:25.111Z,25.23
2022-11-16T09:25:52.190Z,25.02
2022-11-16T09:28:18.889Z,25.29
2022-11-16T09:30:45.852Z,25.13
2022-11-16T09:33:13.344Z,25.01
2022-11-16T09:35:40.037Z,24.94
2022-11-16T09:38:06.827Z,24.96
2022-11-16T09:40:35.322Z,24.84
2022-11-16T09:43:01.974Z,24.83
2022-11-16T09:45:33.289Z,24.79
2022-11-16T09:48:02.884Z,24.98
2022-11-16T09:50:29.323Z,25.13
2022-11-16T09:52:57.293Z,24.76
2022-11-16T09:55:27.289Z,24.83
2022-11-16T09:57:55.681Z,24.63
2022-11-16T10:00:25.737Z,24.59
2022-11-16T10:03:04.659Z,24.61
2022-11-16T10:05:36.909Z,24.72
2022-11-16T10:08:10.165Z,24.71
2022-11-16T10:10:43.103Z,24.94
2022-11-16T10:13:33.219Z,25.50
2022-11-16T10:16:18.310Z,25.75
2022-11-16T10:19:23.338Z,26.00
2022-11-16T10:22:12.264Z,26.72
2022-11-16T10:24:58.368Z,27.29
2022-11-16T10:27:51.924Z,27.73
2022-11-16T10:30:21.333Z,28.18
2022-11-16T10:32:49.604Z,28.64
2022-11-16T10:35:29.851Z,29.13
2022-11-16T10:37:59.035Z,29.91
2022-11-16T10:40:29.105Z,30.07
2022-11-16T10:43:03.125Z,30.26
2022-11-16T10:45:40.689Z,29.94
2022-11-16T10:48:41.262Z,29.78
2022-11-16T10:51:08.338Z,29.34
2022-11-16T10:53:39.619Z,27.95
2022-11-16T10:56:22.234Z,26.80
2022-11-16T10:59:08.195Z,25.91
2022-11-16T11:01:41.773Z,26.03
2022-11-16T11:04:30.171Z,26.03
2022-11-16T11:07:01.008Z,26.02
2022-11-16T11:09:32.173Z,25.96
2022-11-16T11:12:21.059Z,26.05
2022-11-16T11:15:02.975Z,26.29
2022-11-16T11:17:30.534Z,26.08
2022-11-16T11:20:27.818Z,26.07
2022-11-16T11:22:54.536Z,25.99
2022-11-16T11:25:38.770Z,25.98
2022-11-16T11:28:18.862Z,26.09
2022-11-16T11:30:58.779Z,25.97
2022-11-16T11:33:27.305Z,25.84
2022-11-16T11:36:01.829Z,25.97
2022-11-16T11:38:28.429Z,25.98
2022-11-16T11:40:57.875Z,25.83
2022-11-16T11:43:25.180Z,25.94
2022-11-16T11:46:04.038Z,25.95
2022-11-16T11:48:41.791Z,25.96
2022-11-16T11:51:32.780Z,26.29
2022-11-16T11:54:00.380Z,26.87
2022-11-16T11:56:27.966Z,26.84
2022-11-16T11:58:54.648Z,26.60
2022-11-16T12:01:29.908Z,26.59
2022-11-16T12:03:59.361Z,26.51
2022-11-16T12:06:43.634Z,26.79
2022-11-16T12:09:29.503Z,26.61
2022-11-16T12:11:59.560Z,26.90
2022-11-16T12:14:59.181Z,26.66
2022-11-16T12:17:39.786Z,26.71
2022-11-16T12:20:16.620Z,26.59
2022-11-16T12:22:52.183Z,26.81
2022-11-16T12:25:25.625Z,26.75
2022-11-16T12:28:14.059Z,26.74
2022-11-16T12:31:05.982Z,26.69
2022-11-16T12:33:50.628Z,26.86
2022-11-16T12:36:37.853Z,26.99
2022-11-16T12:39:10.520Z,26.90
2022-11-16T12:41:59.971Z,27.03
2022-11-16T12:44:50.960Z,27.11
2022-11-16T12:47:28.914Z,26.71
2022-11-16T12:50:12.879Z,26.56
2022-11-16T12:52:52.486Z,26.60
2022-11-16T12:55:26.421Z,27.19
2022-11-16T12:58:12.338Z,26.88
2022-11-16T13:00:53.235Z,26.65
2022-11-16T13:03:38.339Z,26.73
2022-11-16T13:06:06.923Z,26.84
2022-11-16T13:08:52.389Z,26.74
2022-11-16T13:11:22.834Z,26.75
2022-11-16T13:13:53.604Z,26.71
2022-11-16T13:16:20.746Z,26.82
2022-11-16T13:18:47.304Z,26.84
2022-11-16T13:21:19.109Z,26.87
2022-11-16T13:24:04.412Z,26.76
2022-11-16T13:26:36.288Z,26.83
2022-11-16T13:29:30.286Z,26.87
2022-11-16T13:32:01.035Z,26.86
2022-11-16T13:34:31.478Z,26.87
2022-11-16T13:36:58.070Z,27.33
2022-11-16T13:40:00.514Z,27.94
2022-11-16T13:42:27.090Z,28.20
2022-11-16T13:44:53.729Z,28.49
2022-11-16T13:47:24.856Z,28.84
2022-11-16T13:49:56.693Z,29.15
2022-11-16T13:52:26.646Z,29.68
2022-11-16T13:55:22.203Z,30.08
2022-11-16T13:57:51.010Z,30.51
2022-11-16T14:00:34.046Z,30.92
2022-11-16T14:03:15.949Z,31.31
2022-11-16T14:05:43.843Z,31.41
2022-11-16T14:08:19.297Z,31.28
2022-11-16T14:10:48.710Z,31.09
2022-11-16T14:13:37.381Z,30.44
2022-11-16T14:16:16.590Z,29.13
2022-11-16T14:18:43.688Z,27.56
2022-11-16T14:21:19.280Z,26.66
2022-11-16T14:23:54.544Z,26.36
2022-11-16T14:26:32.405Z,26.40
2022-11-16T14:29:15.473Z,26.38
2022-11-16T14:31:49.847Z,26.32
2022-11-16T14:34:18.676Z,26.24
2022-11-16T14:36:45.631Z,26.11
2022-11-16T14:39:29.024Z,26.07
2022-11-16T14:42:15.213Z,26.03
2022-11-16T14:44:41.897Z,25.92
2022-11-16T14:47:18.986Z,25.87
2022-11-16T14:49:45.650Z,25.90
2022-11-16T14:52:12.225Z,25.96
2022-11-16T14:54:42.495Z,26.17
2022-11-16T14:57:19.859Z,25.82
2022-11-16T14:59:46.424Z,26.09
2022-11-16T15:02:33.147Z,26.23
2022-11-16T15:05:00.129Z,26.23
2022-11-16T15:07:26.762Z,26.14
2022-11-16T15:09:54.902Z,26.17
2022-11-16T15:12:41.825Z,26.16
2022-11-16T15:15:11.400Z,26.05
2022-11-16T15:17:39.520Z,25.97
2022-11-16T15:20:16.530Z,26.01
2022-11-16T15:22:44.690Z,26.00
2022-11-16T15:25:33.597Z,25.88
2022-11-16T15:28:01.845Z,25.78
2022-11-16T15:30:30.486Z,25.86
2022-11-16T15:32:57.084Z,25.84
2022-11-16T15:35:31.299Z,25.75
2022-11-16T15:38:17.696Z,25.84
2022-11-16T15:40:49.479Z,25.80
2022-11-16T15:43:16.055Z,25.74
2022-11-16T15:45:42.905Z,25.79
2022-11-16T15:48:12.214Z,25.80
2022-11-16T15:50:38.786Z,25.72
2022-11-16T15:53:05.382Z,25.75
2022-11-16T15:55:34.230Z,25.81
2022-11-16T15:58:01.382Z,25.76
2022-11-16T16:00:28.360Z,25.68
2022-11-16T16:03:02.551Z,25.76
2022-11-16T16:05:39.742Z,25.74
2022-11-16T16:08:06.846Z,25.65
2022-11-16T16:10:33.446Z,25.57
2022-11-16T16:13:00.692Z,25.67
2022-11-16T16:15:33.891Z,25.71
2022-11-16T16:18:00.765Z,25.65
2022-11-16T16:20:31.205Z,25.70
2022-11-16T16:23:15.185Z,25.77
2022-11-16T16:25:46.028Z,25.69
2022-11-16T16:28:16.655Z,25.59
2022-11-16T16:30:43.226Z,25.69
2022-11-16T16:33:15.501Z,25.72
2022-11-16T16:35:42.085Z,25.64
2022-11-16T16:38:09.441Z,25.72
2022-11-16T16:40:36.079Z,25.75
2022-11-16T16:43:02.639Z,25.68
2022-11-16T16:45:41.388Z,25.60
2022-11-16T16:48:09.490Z,25.67
2022-11-16T16:50:36.535Z,25.71
2022-11-16T16:53:03.157Z,25.64
2022-11-16T16:55:32.871Z,25.59
2022-11-16T16:58:02.890Z,25.67
2022-11-16T17:00:29.481Z,25.67
2022-11-16T17:02:56.205Z,25.68
2022-11-16T17:05:22.782Z,25.77
2022-11-16T17:07:49.479Z,25.96
2022-11-16T17:10:17.986Z,26.19
2022-11-16T17:12:44.570Z,26.50
2022-11-16T17:15:15.056Z,26.84
2022-11-16T17:17:44.626Z,27.24
2022-11-16T17:20:11.863Z,27.62
2022-11-16T17:22:38.523Z,28.01
2022-11-16T17:25:05.546Z,28.39
2022-11-16T17:27:32.314Z,28.74
2022-11-16T17:29:58.957Z,29.14
2022-11-16T17:32:25.607Z,29.39
2022-11-16T17:34:52.182Z,29.27
2022-11-16T17:37:18.859Z,28.96
2022-11-16T17:39:45.406Z,28.68
2022-11-16T17:42:12.015Z,28.25
2022-11-16T17:44:38.576Z,27.38
2022-11-16T17:47:05.228Z,26.33
2022-11-16T17:49:31.783Z,25.55
2022-11-16T17:51:58.337Z,25.29
2022-11-16T17:54:24.889Z,25.31
2022-11-16T17:56:51.525Z,25.29
2022-11-16T17:59:18.094Z,25.27
2022-11-16T18:01:45.952Z,25.23
2022-11-16T18:04:12.562Z,25.17
2022-11-16T18:06:39.987Z,25.12
2022-11-16T18:09:06.584Z,25.08
2022-11-16T18:11:33.338Z,25.03
2022-11-16T18:14:00.777Z,24.97
2022-11-16T18:16:31.533Z,24.96
2022-11-16T18:19:02.589Z,25.11
2022-11-16T18:21:29.322Z,25.21
2022-11-16T18:23:56.035Z,25.22
2022-11-16T18:26:23.729Z,25.32
2022-11-16T18:28:51.520Z,25.36
2022-11-16T18:31:19.994Z,25.35
2022-11-16T18:33:47.463Z,25.43
2022-11-16T18:36:14.069Z,25.48
2022-11-16T18:38:40.689Z,25.42
2022-11-16T18:41:13.781Z,25.43
2022-11-16T18:43:41.090Z,25.50
2022-11-16T18:46:07.863Z,25.47
2022-11-16T18:48:35.786Z,25.42
2022-11-16T18:51:03.105Z,25.53
2022-11-16T18:53:30.063Z,25.56
2022-11-16T18:55:58.292Z,25.49
2022-11-16T18:58:49.389Z,25.47
2022-11-16T19:01:14.000Z,25.55
2022-11-16T19:03:40.660Z,25.53
2022-11-16T19:06:07.790Z,25.49
2022-11-16T19:08:34.843Z,25.57
2022-11-16T19:11:11.618Z,25.57
2022-11-16T19:13:38.775Z,25.47
2022-11-16T19:16:06.066Z,25.50
2022-11-16T19:18:32.707Z,25.56
2022-11-16T19:21:10.011Z,25.49
2022-11-16T19:23:41.019Z,25.44
2022-11-16T19:26:07.723Z,25.52
2022-11-16T19:28:37.968Z,25.51
2022-11-16T19:31:08.896Z,25.44
2022-11-16T19:33:35.992Z,25.51
2022-11-16T19:36:09.642Z,25.55
2022-11-16T19:38:36.455Z,25.50
2022-11-16T19:41:03.138Z,25.39
2022-11-16T19:43:29.711Z,25.44
2022-11-16T19:45:56.330Z,25.48
2022-11-16T19:48:22.895Z,25.42
2022-11-16T19:50:49.468Z,25.45
2022-11-16T19:53:16.042Z,25.50
2022-11-16T19:55:44.224Z,25.45
2022-11-16T19:58:12.836Z,25.42
2022-11-16T20:00:39.402Z,25.50
2022-11-16T20:03:06.061Z,25.66
2022-11-16T20:05:33.220Z,25.94
2022-11-16T20:07:59.778Z,26.19
2022-11-16T20:10:29.010Z,26.50
2022-11-16T20:12:56.885Z,26.82
2022-11-16T20:15:25.392Z,27.14
2022-11-16T20:17:52.376Z,27.48
2022-11-16T20:20:19.155Z,27.83
2022-11-16T20:22:47.460Z,28.16
2022-11-16T20:25:16.888Z,28.55
2022-11-16T20:27:43.482Z,28.89
2022-11-16T20:30:10.567Z,29.26
2022-11-16T20:32:37.173Z,29.63
2022-11-16T20:35:03.882Z,30.14
2022-11-16T20:37:30.441Z,30.74
2022-11-16T20:39:57.234Z,31.20
2022-11-16T20:42:24.152Z,31.68
2022-11-16T20:44:50.751Z,32.03
2022-11-16T20:47:17.333Z,32.40
2022-11-16T20:49:43.895Z,32.69
2022-11-16T20:52:10.454Z,33.10
2022-11-16T20:54:37.028Z,33.38
2022-11-16T20:57:04.650Z,33.66
2022-11-16T20:59:31.296Z,33.91
2022-11-16T21:01:57.864Z,34.26
2022-11-16T21:04:24.474Z,34.46
2022-11-16T21:06:51.088Z,34.69
2022-11-16T21:09:22.641Z,34.98
2022-11-16T21:12:08.035Z,35.29
2022-11-16T21:14:34.669Z,35.49
2022-11-16T21:17:01.279Z,35.64
2022-11-16T21:19:27.847Z,35.83
2022-11-16T21:21:54.403Z,36.08
2022-11-16T21:24:21.918Z,36.39
2022-11-16T21:26:48.494Z,36.57
2022-11-16T21:29:15.146Z,36.65
2022-11-16T21:31:41.713Z,36.77
2022-11-16T21:34:08.304Z,36.88
2022-11-16T21:36:36.193Z,37.03
2022-11-16T21:39:03.099Z,37.16
2022-11-16T21:41:29.741Z,37.34
2022-11-16T21:43:56.433Z,37.52
2022-11-16T21:46:27.202Z,37.58
2022-11-16T21:48:55.407Z,37.74
2022-11-16T21:51:24.714Z,37.92
2022-11-16T21:53:51.307Z,38.06
2022-11-16T21:56:18.984Z,38.20
2022-11-16T21:58:45.742Z,38.43
2022-11-16T22:01:12.672Z,38.43
2022-11-16T22:03:39.318Z,38.46
2022-11-16T22:06:25.734Z,38.62
2022-11-16T22:08:52.657Z,38.64
2022-11-16T22:11:22.231Z,38.74
2022-11-16T22:13:49.425Z,38.88
2022-11-16T22:16:16.383Z,38.97
2022-11-16T22:18:43.216Z,39.12
2022-11-16T22:21:09.889Z,39.24
2022-11-16T22:23:36.920Z,39.45
2022-11-16T22:26:08.233Z,39.46
2022-11-16T22:28:35.352Z,39.58
2022-11-16T22:31:06.529Z,39.73
2022-11-16T22:33:33.567Z,39.88
2022-11-16T22:36:00.559Z,40.09
2022-11-16T22:38:27.206Z,40.28
2022-11-16T22:40:55.303Z,40.50
2022-11-16T22:43:23.297Z,40.59
2022-11-16T22:45:49.917Z,40.65
2022-11-16T22:48:16.526Z,40.77
2022-11-16T22:50:43.361Z,40.86
2022-11-16T22:53:10.267Z,40.91
2022-11-16T22:55:37.711Z,40.96
2022-11-16T22:58:04.740Z,41.14
2022-11-16T23:00:31.497Z,41.26
2022-11-16T23:02:58.164Z,41.31
2022-11-16T23:05:24.796Z,41.33
2022-11-16T23:07:51.357Z,41.42
2022-11-16T23:10:18.110Z,41.49
2022-11-16T23:13:03.226Z,41.55
2022-11-16T23:15:48.635Z,41.59
2022-11-16T23:18:15.339Z,41.68
2022-11-16T23:21:00.375Z,41.75
2022-11-16T23:23:45.854Z,41.75
2022-11-16T23:26:33.513Z,41.88
2022-11-16T23:29:00.287Z,41.95
2022-11-16T23:31:26.891Z,41.99
2022-11-16T23:33:53.443Z,42.05
2022-11-16T23:36:20.038Z,42.07
2022-11-16T23:38:46.600Z,42.11
2022-11-16T23:41:31.814Z,42.15
2022-11-16T23:43:58.444Z,42.13
2022-11-16T23:46:29.100Z,42.21
2022-11-16T23:48:55.824Z,42.23
2022-11-16T23:51:23.467Z,42.24
2022-11-16T23:53:51.732Z,42.32
2022-11-16T23:56:19.311Z,42.32
2022-11-16T23:58:46.086Z,42.38
